Time;durP1;ratioP1;P1;durP2;ratioP2;P2;SDS_P1;SDS_P2;PMS_P1;PMS_P2;Temp;Humidity;BMP_temperature;BMP_pressure;BME280_temperature;BME280_humidity;BME280_pressure;Samples;Min_cycle;Max_cycle;Signal;HPM_P1;HPM_P2
2022/12/12 00:02:18;;;;;;;;;;;;;;;;;;;;;
2022/12/12 00:04:57;;;;;;;22.40;15.40;;;;;;;;;;5090504;28;20063;-53
2022/12/12 00:07:34;;;;;;;18.33;15.90;;;;;;;;;;5109512;28;20088;-56
2022/12/12 00:16:18;;;;;;;9.80;8.87;;;;;;;;;;5067073;28;20119;-57
2022/12/12 00:18:50;;;;;;;12.50;10.67;;;;;;;;;;5067503;28;20088;-56
2022/12/12 00:21:20;;;;;;;18.50;12.37;;;;;;;;;;5105244;28;20367;-57
2022/12/12 00:26:59;;;;;;;16.10;12.90;;;;;;;;;;5109560;28;20047;-55
2022/12/12 00:29:57;;;;;;;13.47;12.03;;;;;;;;;;5090446;28;20534;-54
2022/12/12 00:38:45;;;;;;;12.17;10.37;;;;;;;;;;5109627;28;20099;-57
2022/12/12 00:41:15;;;;;;;9.97;9.03;;;;;;;;;;5059492;28;20095;-53
2022/12/12 00:47:08;;;;;;;;;;;;;;;;;;5027099;28;20054;-57
2022/12/12 00:49:56;;;;;;;10.80;9.17;;;;;;;;;;5040069;28;19904;-58
2022/12/12 00:52:46;;;;;;;12.73;9.30;;;;;;;;;;5089834;28;20043;-56
2022/12/12 00:55:52;;;;;;;15.17;9.73;;;;;;;;;;5076177;28;20103;-58
2022/12/12 00:59:08;;;;;;;15.27;11.47;;;;;;;;;;5090997;28;20028;-57
2022/12/12 01:07:53;;;;;;;16.13;12.23;;;;;;;;;;5053265;28;20044;-55
2022/12/12 01:10:51;;;;;;;13.37;7.80;;;;;;;;;;5109308;28;20028;-57
2022/12/12 01:19:41;;;;;;;;;;;;;;;;;;;;;
2022/12/12 01:25:43;;;;;;;12.87;9.83;;;;;;;;;;5108752;28;20032;-56
2022/12/12 01:28:38;;;;;;;16.77;8.77;;;;;;;;;;5090331;28;20036;-53
2022/12/12 01:31:31;;;;;;;11.37;8.60;;;;;;;;;;5097974;28;20040;-56
2022/12/12 01:34:19;;;;;;;;;;;;;;;;;;;;;
2022/12/12 01:37:08;;;;;;;9.27;7.60;;;;;;;;;;5108535;28;20055;-56
2022/12/12 01:40:06;;;;;;;6.77;6.00;;;;;;;;;;5108717;28;20040;-57
2022/12/12 01:42:54;;;;;;;15.53;10.27;;;;;;;;;;5090400;28;20036;-55
2022/12/12 01:45:50;;;;;;;18.23;9.87;;;;;;;;;;5108017;28;20039;-57
2022/12/12 01:48:42;;;;;;;8.57;6.17;;;;;;;;;;5090844;28;20025;-57
2022/12/12 01:51:52;;;;;;;8.37;7.57;;;;;;;;;;5085863;28;20055;-57
2022/12/12 02:00:58;;;;;;;12.37;9.57;;;;;;;;;;5045567;28;20115;-53
2022/12/12 02:06:11;;;;;;;9.60;8.33;;;;;;;;;;5054462;28;20087;-55
2022/12/12 02:12:01;;;;;;;12.13;7.60;;;;;;;;;;5052921;28;20042;-55
2022/12/12 02:17:47;;;;;;;12.20;8.60;;;;;;;;;;5095882;28;20088;-56
2022/12/12 02:20:52;;;;;;;9.83;7.40;;;;;;;;;;5106867;28;20127;-55
2022/12/12 02:27:11;;;;;;;8.90;6.93;;;;;;;;;;5083862;28;20062;-55
2022/12/12 02:29:56;;;;;;;12.40;9.17;;;;;;;;;;5090755;28;20058;-56
2022/12/12 02:33:01;;;;;;;;;;;;;;;;;;;;;
2022/12/12 02:35:38;;;;;;;6.77;6.07;;;;;;;;;;5074358;28;20056;-55
2022/12/12 02:38:32;;;;;;;15.93;9.50;;;;;;;;;;5111905;28;20035;-54
2022/12/12 02:41:42;;;;;;;8.00;6.47;;;;;;;;;;5111822;28;20028;-56
2022/12/12 02:44:39;;;;;;;9.93;8.33;;;;;;;;;;5010289;28;20026;-57
2022/12/12 02:47:13;;;;;;;11.10;7.97;;;;;;;;;;5111254;28;20087;-56
2022/12/12 02:49:54;;;;;;;9.73;8.00;;;;;;;;;;5112160;28;20039;-53
2022/12/12 02:52:51;;;;;;;10.23;8.33;;;;;;;;;;5098589;28;20044;-57
2022/12/12 02:55:36;;;;;;;11.37;8.67;;;;;;;;;;5112183;28;20307;-51
2022/12/12 02:58:16;;;;;;;8.83;7.67;;;;;;;;;;5094866;28;20059;-56
2022/12/12 03:01:09;;;;;;;13.40;8.05;;;;;;;;;;5111724;28;20039;-54
2022/12/12 03:10:11;;;;;;;;;;;;;;;;;;;;;
2022/12/12 03:13:22;;;;;;;10.20;5.70;;;;;;;;;;5131931;28;20066;-55
2022/12/12 03:16:10;;;;;;;9.37;8.37;;;;;;;;;;5029674;28;20053;-53
2022/12/12 03:22:01;;;;;;;17.17;8.40;;;;;;;;;;5118842;28;20517;-55
2022/12/12 03:24:50;;;;;;;12.63;9.40;;;;;;;;;;5112605;28;20053;-55
2022/12/12 03:31:05;;;;;;;9.45;8.63;;;;;;;;;;5068710;28;20029;-52
2022/12/12 03:33:39;;;;;;;10.60;9.57;;;;;;;;;;5054714;28;20093;-55
2022/12/12 03:36:40;;;;;;;10.60;8.63;;;;;;;;;;5069347;28;20024;-56
2022/12/12 03:55:04;;;;;;;12.10;9.17;;;;;;;;;;4989896;28;20033;-55
2022/12/12 03:58:08;;;;;;;11.70;8.67;;;;;;;;;;4973157;28;20035;-52
2022/12/12 04:01:06;;;;;;;12.63;10.47;;;;;;;;;;5026859;28;20234;-53
2022/12/12 04:07:14;;;;;;;9.70;8.73;;;;;;;;;;4988756;28;20058;-52
2022/12/12 04:15:38;;;;;;;10.90;9.27;;;;;;;;;;5122100;28;20038;-53
2022/12/12 04:18:32;;;;;;;9.57;8.27;;;;;;;;;;5130833;28;20034;-55
2022/12/12 04:24:11;;;;;;;12.63;9.10;;;;;;;;;;5130227;28;20046;-54
2022/12/12 04:26:59;;;;;;;23.13;10.30;;;;;;;;;;5129415;28;20032;-58
2022/12/12 04:29:38;;;;;;;14.20;9.23;;;;;;;;;;5122262;28;20068;-54
2022/12/12 04:32:23;;;;;;;18.37;9.63;;;;;;;;;;5100822;28;20500;-52
2022/12/12 04:35:01;;;;;;;16.57;9.63;;;;;;;;;;5115621;28;20034;-55
2022/12/12 04:38:05;;;;;;;10.67;8.03;;;;;;;;;;5116512;28;20136;-55
2022/12/12 04:41:01;;;;;;;;;;;;;;;;;;;;;
2022/12/12 04:43:47;;;;;;;9.67;8.83;;;;;;;;;;5073001;28;20042;-55
2022/12/12 04:49:44;;;;;;;9.50;8.40;;;;;;;;;;5072887;28;20139;-54
2022/12/12 04:58:42;;;;;;;12.27;7.90;;;;;;;;;;5044391;28;20044;-54
2022/12/12 05:04:26;;;;;;;9.70;6.43;;;;;;;;;;5060761;28;19943;-55
2022/12/12 05:07:33;;;;;;;13.87;9.87;;;;;;;;;;5109470;28;20485;-54
2022/12/12 05:10:30;;;;;;;10.53;9.07;;;;;;;;;;5097853;28;20578;-54
2022/12/12 05:16:33;;;;;;;12.37;9.27;;;;;;;;;;5116020;28;20039;-51
2022/12/12 05:19:21;;;;;;;11.48;8.40;;;;;;;;;;5122492;28;20423;-55
2022/12/12 05:22:19;;;;;;;;;;;;;;;;;;;;;
2022/12/12 05:25:11;;;;;;;11.67;8.63;;;;;;;;;;5095373;28;20027;-53
2022/12/12 05:28:04;;;;;;;11.07;8.77;;;;;;;;;;5113637;28;20034;-53
2022/12/12 05:36:19;;;;;;;10.93;9.87;;;;;;;;;;5128852;28;20026;-52
2022/12/12 05:41:53;;;;;;;21.77;12.20;;;;;;;;;;5125179;28;20039;-55
2022/12/12 05:44:47;;;;;;;9.53;8.60;;;;;;;;;;5110435;28;20024;-54
2022/12/12 05:47:39;;;;;;;19.40;11.10;;;;;;;;;;5128923;28;20026;-54
2022/12/12 05:50:45;;;;;;;16.17;12.13;;;;;;;;;;5129558;28;20045;-52
2022/12/12 05:56:29;;;;;;;12.43;9.50;;;;;;;;;;5128568;28;20152;-55
2022/12/12 05:59:11;;;;;;;22.43;12.47;;;;;;;;;;5127278;28;20038;-55
2022/12/12 06:05:34;;;;;;;11.40;9.77;;;;;;;;;;5013674;28;20041;-55
2022/12/12 06:08:36;;;;;;;14.37;10.90;;;;;;;;;;5030998;28;20057;-51
2022/12/12 06:11:27;;;;;;;14.00;10.63;;;;;;;;;;5110236;28;20032;-55
2022/12/12 06:17:32;;;;;;;17.53;11.97;;;;;;;;;;4967362;28;20045;-53
2022/12/12 06:20:24;;;;;;;13.30;11.47;;;;;;;;;;5007960;28;20043;-54
2022/12/12 06:25:44;;;;;;;22.35;10.93;;;;;;;;;;5009679;28;20440;-54
2022/12/12 06:28:32;;;;;;;18.53;12.53;;;;;;;;;;5037521;28;20051;-54
2022/12/12 06:34:42;;;;;;;14.13;10.73;;;;;;;;;;5097485;28;20044;-55
2022/12/12 06:37:30;;;;;;;15.60;12.67;;;;;;;;;;5079510;28;20384;-52
2022/12/12 06:40:36;;;;;;;;;;;;;;;;;;;;;
2022/12/12 06:43:13;;;;;;;17.60;9.27;;;;;;;;;;4988921;28;20113;-54
2022/12/12 06:57:38;;;;;;;17.85;11.88;;;;;;;;;;5068323;28;20488;-54
2022/12/12 07:03:49;;;;;;;10.50;9.40;;;;;;;;;;5086524;28;20043;-55
2022/12/12 07:09:22;;;;;;;14.07;10.83;;;;;;;;;;5075453;28;20044;-54
2022/12/12 07:12:10;;;;;;;13.47;10.07;;;;;;;;;;5056043;28;20327;-54
2022/12/12 07:14:55;;;;;;;13.63;11.10;;;;;;;;;;5048741;28;20422;-52
2022/12/12 07:18:07;;;;;;;11.17;9.60;;;;;;;;;;5040992;28;20067;-50
2022/12/12 07:21:07;;;;;;;15.20;10.97;;;;;;;;;;5014565;28;20042;-55
2022/12/12 07:23:44;;;;;;;12.40;11.27;;;;;;;;;;5057749;28;20450;-55
2022/12/12 07:26:38;;;;;;;12.87;9.03;;;;;;;;;;5075084;28;20037;-54
2022/12/12 07:29:14;;;;;;;15.70;11.37;;;;;;;;;;5058165;28;20056;-55
2022/12/12 07:31:55;;;;;;;16.83;9.43;;;;;;;;;;5082229;28;20028;-55
2022/12/12 07:34:31;;;;;;;8.35;7.55;;;;;;;;;;5068905;28;20100;-54
2022/12/12 07:37:06;;;;;;;16.00;13.50;;;;;;;;;;5070625;28;20092;-52
2022/12/12 07:45:37;;;;;;;18.27;12.33;;;;;;;;;;5130738;28;20039;-54
2022/12/12 07:48:19;;;;;;;15.63;13.27;;;;;;;;;;5130850;28;20031;-56
2022/12/12 07:57:15;;;;;;;27.20;11.97;;;;;;;;;;5130502;28;20026;-54
2022/12/12 08:00:04;;;;;;;18.87;15.73;;;;;;;;;;5130286;28;20023;-57
2022/12/12 08:02:44;;;;;;;;;;;;;;;;;;;;;
2022/12/12 08:05:19;;;;;;;14.13;9.43;;;;;;;;;;5125227;28;20059;-54
2022/12/12 08:14:20;;;;;;;13.80;10.77;;;;;;;;;;5094815;28;20036;-55
2022/12/12 08:19:54;;;;;;;11.03;9.93;;;;;;;;;;5027498;28;20041;-53
2022/12/12 08:22:29;;;;;;;15.83;11.87;;;;;;;;;;5027844;28;20038;-54
2022/12/12 08:25:00;;;;;;;18.37;13.37;;;;;;;;;;5011608;28;20060;-55
2022/12/12 08:27:45;;;;;;;17.30;13.03;;;;;;;;;;5003307;28;20034;-54
2022/12/12 08:36:28;;;;;;;11.73;7.28;;;;;;;;;;5029637;28;20025;-53
2022/12/12 08:45:33;;;;;;;21.97;10.97;;;;;;;;;;5066216;28;20029;-54
2022/12/12 08:48:35;;;;;;;12.07;10.80;;;;;;;;;;5062679;28;20028;-54
2022/12/12 08:51:38;;;;;;;12.40;9.10;;;;;;;;;;5069637;28;20029;-52
2022/12/12 08:54:05;;;;;;;19.63;12.90;;;;;;;;;;5107876;28;20020;-53
2022/12/12 08:59:49;;;;;;;12.23;10.33;;;;;;;;;;5058924;28;20068;-55
2022/12/12 09:02:34;;;;;;;15.83;11.57;;;;;;;;;;5047503;28;20029;-57
2022/12/12 09:05:18;;;;;;;12.90;9.23;;;;;;;;;;5065383;28;20021;-53
2022/12/12 09:07:53;;;;;;;18.77;12.53;;;;;;;;;;5065491;28;20424;-53
2022/12/12 09:11:07;;;;;;;12.90;11.60;;;;;;;;;;5049481;28;20044;-55
2022/12/12 09:13:33;;;;;;;10.27;9.03;;;;;;;;;;4988777;28;20039;-55
2022/12/12 09:16:06;;;;;;;14.03;11.90;;;;;;;;;;5041422;28;20032;-56
2022/12/12 09:18:57;;;;;;;11.57;10.37;;;;;;;;;;5048897;28;20067;-53
2022/12/12 09:21:46;;;;;;;12.90;11.43;;;;;;;;;;5065121;28;20032;-54
2022/12/12 09:24:25;;;;;;;13.63;9.83;;;;;;;;;;5058298;28;20037;-54
2022/12/12 09:27:33;;;;;;;11.23;8.83;;;;;;;;;;5049799;28;20037;-54
2022/12/12 09:33:10;;;;;;;20.20;11.83;;;;;;;;;;5071374;28;20382;-56
2022/12/12 09:35:49;;;;;;;14.87;11.10;;;;;;;;;;5122088;28;20026;-55
2022/12/12 09:38:47;;;;;;;16.47;12.30;;;;;;;;;;5127915;28;20066;-54
2022/12/12 09:44:21;;;;;;;16.73;11.50;;;;;;;;;;5129087;28;20381;-53
2022/12/12 09:47:23;;;;;;;;;;;;;;;;;;;;;
2022/12/12 09:50:16;;;;;;;11.77;10.67;;;;;;;;;;5106241;28;20059;-54
2022/12/12 09:53:00;;;;;;;15.93;14.13;;;;;;;;;;5106982;28;20118;-55
2022/12/12 09:56:00;;;;;;;16.03;11.20;;;;;;;;;;5098608;28;20380;-56
2022/12/12 10:02:08;;;;;;;13.83;11.67;;;;;;;;;;5022905;28;20040;-54
2022/12/12 10:05:04;;;;;;;17.80;11.03;;;;;;;;;;5054475;28;20152;-55
2022/12/12 10:08:02;;;;;;;13.07;11.77;;;;;;;;;;5075174;28;20104;-57
2022/12/12 10:11:03;;;;;;;15.53;12.93;;;;;;;;;;5105732;28;20062;-56
2022/12/12 10:19:54;;;;;;;18.90;15.27;;;;;;;;;;5044229;28;20048;-57
2022/12/12 10:22:59;;;;;;;20.20;10.90;;;;;;;;;;5046247;28;20038;-53
2022/12/12 10:25:48;;;;;;;11.57;10.43;;;;;;;;;;4967371;29;20273;-56
2022/12/12 10:28:34;;;;;;;13.53;10.07;;;;;;;;;;5009834;28;20061;-56
2022/12/12 10:31:36;;;;;;;;;;;;;;;;;;;;;
2022/12/12 10:34:08;;;;;;;15.40;10.43;;;;;;;;;;5123222;28;20067;-55
2022/12/12 10:37:14;;;;;;;16.17;13.23;;;;;;;;;;5124897;28;20023;-55
2022/12/12 10:40:00;;;;;;;18.90;13.27;;;;;;;;;;5126786;28;20063;-57
2022/12/12 10:43:24;;;;;;;14.43;10.43;;;;;;;;;;5110056;28;20054;-53
2022/12/12 10:49:17;;;;;;;12.73;11.37;;;;;;;;;;4989252;28;20034;-57
2022/12/12 10:52:08;;;;;;;12.63;9.40;;;;;;;;;;5106188;28;20465;-57
2022/12/12 10:54:40;;;;;;;;;;;;;;;;;;5118720;28;20465;-56
2022/12/12 11:00:49;;;;;;;;;;;;;;;;;;;;;
2022/12/12 11:03:36;;;;;;;15.13;11.43;;;;;;;;;;5117836;28;20107;-56
2022/12/12 11:09:27;;;;;;;14.77;9.20;;;;;;;;;;5050261;28;20049;-56
2022/12/12 11:15:16;;;;;;;11.50;9.43;;;;;;;;;;5062907;28;20073;-54
2022/12/12 11:18:03;;;;;;;13.80;10.43;;;;;;;;;;5091779;28;20036;-56
2022/12/12 11:24:06;;;;;;;13.03;8.57;;;;;;;;;;5077401;28;20032;-55
2022/12/12 11:26:57;;;;;;;14.03;10.60;;;;;;;;;;5097582;28;20032;-59
2022/12/12 11:29:41;;;;;;;10.25;9.00;;;;;;;;;;5097849;28;20038;-58
2022/12/12 11:32:29;;;;;;;11.40;8.93;;;;;;;;;;5097686;28;20024;-59
2022/12/12 11:35:23;;;;;;;10.53;9.07;;;;;;;;;;5097045;28;20046;-59
2022/12/12 11:38:01;;;;;;;11.63;8.87;;;;;;;;;;5098423;28;20430;-58
2022/12/12 11:47:29;;;;;;;8.63;7.17;;;;;;;;;;5072016;28;20029;-58
2022/12/12 11:52:46;;;;;;;;;;;;;;;;;;5096492;28;20031;-59
2022/12/12 11:58:28;;;;;;;8.60;7.07;;;;;;;;;;5096529;28;20089;-60
2022/12/12 12:01:29;;;;;;;11.60;8.87;;;;;;;;;;5078224;28;20535;-60
2022/12/12 12:04:08;;;;;;;;;;;;;;;;;;;;;
2022/12/12 12:07:15;;;;;;;8.50;7.60;;;;;;;;;;5099624;28;19916;-59
2022/12/12 12:13:17;;;;;;;7.05;5.25;;;;;;;;;;5114606;28;20046;-59
2022/12/12 12:16:02;;;;;;;5.37;4.33;;;;;;;;;;5116193;28;20469;-60
2022/12/12 12:18:46;;;;;;;8.23;6.80;;;;;;;;;;5116626;28;20140;-59
2022/12/12 12:21:38;;;;;;;7.53;5.63;;;;;;;;;;5097729;28;20461;-60
2022/12/12 12:24:32;;;;;;;6.73;5.27;;;;;;;;;;5096090;28;20569;-60
2022/12/12 12:36:50;;;;;;;7.17;4.00;;;;;;;;;;5077079;28;20032;-59
2022/12/12 12:42:39;;;;;;;5.90;4.50;;;;;;;;;;5083181;28;20043;-57
2022/12/12 12:45:36;;;;;;;8.90;5.90;;;;;;;;;;5115765;28;20030;-59
2022/12/12 12:48:29;;;;;;;;;;;;;;;;;;;;;
2022/12/12 12:51:14;;;;;;;5.63;3.87;;;;;;;;;;5116310;28;20424;-59
2022/12/12 12:54:02;;;;;;;5.10;4.43;;;;;;;;;;5115356;28;20030;-59
2022/12/12 12:56:48;;;;;;;4.97;3.73;;;;;;;;;;5115759;28;20034;-59
2022/12/12 13:02:45;;;;;;;6.47;5.33;;;;;;;;;;5106380;28;20120;-59
2022/12/12 13:05:27;;;;;;;58.70;37.33;;;;;;;;;;5115511;28;20112;-59
2022/12/12 13:08:11;;;;;;;11.67;7.77;;;;;;;;;;5115149;28;20069;-59
2022/12/12 13:11:05;;;;;;;;;;;;;;;;;;;;;
2022/12/12 13:13:53;;;;;;;9.17;4.23;;;;;;;;;;5114981;28;20106;-59
2022/12/12 13:16:41;;;;;;;3.70;3.27;;;;;;;;;;5097691;28;20537;-59
2022/12/12 13:19:37;;;;;;;6.20;5.00;;;;;;;;;;5114978;28;20366;-59
2022/12/12 13:25:29;;;;;;;7.23;4.43;;;;;;;;;;5072264;28;20062;-59
2022/12/12 13:31:20;;;;;;;7.37;4.17;;;;;;;;;;4992482;28;20107;-59
2022/12/12 13:37:38;;;;;;;;;;;;;;;;;;;;;
2022/12/12 13:40:35;;;;;;;6.67;5.27;;;;;;;;;;5057591;28;20032;-59
2022/12/12 13:49:04;;;;;;;6.70;5.43;;;;;;;;;;5118296;28;20039;-59
2022/12/12 13:52:14;;;;;;;7.80;4.13;;;;;;;;;;5115786;28;20031;-59
2022/12/12 13:54:55;;;;;;;;;;;;;;;;;;;;;
2022/12/12 13:57:49;;;;;;;;;;;;;;;;;;;;;
2022/12/12 14:00:42;;;;;;;8.03;6.40;;;;;;;;;;5098304;28;20039;-59
2022/12/12 14:06:45;;;;;;;8.73;5.20;;;;;;;;;;4985878;28;20061;-59
2022/12/12 14:09:48;;;;;;;7.10;6.40;;;;;;;;;;5112928;28;20035;-59
2022/12/12 14:15:49;;;;;;;;;;;;;;;;;;;;;
2022/12/12 14:18:43;;;;;;;8.67;5.70;;;;;;;;;;5109680;28;20032;-59
2022/12/12 14:21:19;;;;;;;6.53;4.93;;;;;;;;;;5114455;28;20059;-58
2022/12/12 14:23:50;;;;;;;5.30;4.73;;;;;;;;;;5114615;28;20099;-59
2022/12/12 14:26:43;;;;;;;5.82;3.97;;;;;;;;;;5118291;28;20042;-59
2022/12/12 14:29:44;;;;;;;8.70;5.07;;;;;;;;;;5095352;28;20358;-58
2022/12/12 14:32:32;;;;;;;9.77;6.67;;;;;;;;;;5097232;28;20039;-59
2022/12/12 14:38:24;;;;;;;9.13;7.07;;;;;;;;;;5102994;28;20036;-59
2022/12/12 14:48:06;;;;;;;12.90;8.73;;;;;;;;;;5102064;28;20042;-59
2022/12/12 15:09:38;;;;;;;;;;;;;;;;;;;;;
2022/12/12 15:12:14;;;;;;;10.90;7.03;;;;;;;;;;5050431;28;20060;-59
2022/12/12 15:14:51;;;;;;;9.43;8.30;;;;;;;;;;5038603;28;20490;-58
2022/12/12 15:17:39;;;;;;;10.10;9.10;;;;;;;;;;5055037;28;20033;-59
2022/12/12 15:20:36;;;;;;;7.67;6.93;;;;;;;;;;5055415;28;20064;-59
2022/12/12 15:26:53;;;;;;;13.00;7.87;;;;;;;;;;5002082;28;20046;-59
2022/12/12 15:29:24;;;;;;;10.93;8.93;;;;;;;;;;5048781;28;20481;-58
2022/12/12 15:32:22;;;;;;;12.35;9.57;;;;;;;;;;5100067;28;20073;-58
2022/12/12 15:38:32;;;;;;;12.83;7.63;;;;;;;;;;5116789;28;20086;-59
2022/12/12 15:41:02;;;;;;;11.93;8.90;;;;;;;;;;5014300;28;20065;-59
2022/12/12 15:46:41;;;;;;;14.73;9.17;;;;;;;;;;4999645;28;20026;-59
2022/12/12 15:49:38;;;;;;;10.17;8.37;;;;;;;;;;5015463;28;20041;-59
2022/12/12 15:59:02;;;;;;;;;;;;;;;;;;;;;
2022/12/12 16:05:20;;;;;;;11.40;7.37;;;;;;;;;;5115613;28;20103;-59
2022/12/12 16:08:27;;;;;;;9.77;7.73;;;;;;;;;;5116068;28;20063;-59
2022/12/12 16:10:59;;;;;;;8.27;7.00;;;;;;;;;;5096825;28;20080;-59
2022/12/12 16:13:51;;;;;;;11.13;9.37;;;;;;;;;;5113602;28;20528;-59
2022/12/12 16:16:49;;;;;;;18.60;10.80;;;;;;;;;;5072310;28;20083;-59
2022/12/12 16:19:47;;;;;;;17.57;9.70;;;;;;;;;;5056391;28;20486;-59
2022/12/12 16:25:24;;;;;;;14.17;9.77;;;;;;;;;;5073104;28;20036;-59
2022/12/12 16:28:39;;;;;;;10.13;8.97;;;;;;;;;;5057459;28;20040;-59
2022/12/12 16:31:15;;;;;;;15.77;10.25;;;;;;;;;;5070583;28;20028;-59
2022/12/12 16:34:12;;;;;;;15.25;8.63;;;;;;;;;;5050474;28;20028;-59
2022/12/12 16:43:03;;;;;;;12.03;7.10;;;;;;;;;;5116061;28;20118;-59
2022/12/12 16:45:37;;;;;;;6.87;6.13;;;;;;;;;;5114790;28;20035;-59
2022/12/12 16:48:15;;;;;;;8.03;5.73;;;;;;;;;;5114082;28;20072;-59
2022/12/12 16:51:13;;;;;;;9.43;6.70;;;;;;;;;;5031430;28;20040;-59
2022/12/12 16:54:20;;;;;;;8.27;6.90;;;;;;;;;;5009559;28;20486;-59
2022/12/12 16:57:05;;;;;;;6.63;5.60;;;;;;;;;;5053134;28;20043;-59
2022/12/12 16:59:53;;;;;;;12.33;6.53;;;;;;;;;;5036461;28;20475;-59
2022/12/12 17:08:37;;;;;;;7.40;6.03;;;;;;;;;;5033895;28;20104;-59
2022/12/12 17:11:27;;;;;;;6.63;5.80;;;;;;;;;;5033101;28;20116;-59
2022/12/12 17:14:29;;;;;;;8.98;6.32;;;;;;;;;;5016708;28;20137;-59
2022/12/12 17:17:13;;;;;;;16.43;6.93;;;;;;;;;;4938294;29;20513;-59
2022/12/12 17:25:41;;;;;;;9.30;6.70;;;;;;;;;;4993553;28;20634;-59
2022/12/12 17:28:45;;;;;;;10.20;8.63;;;;;;;;;;5059511;28;20036;-59
2022/12/12 17:34:19;;;;;;;11.73;7.50;;;;;;;;;;4923798;29;20038;-59
2022/12/12 17:39:58;;;;;;;;;;;;;;;;;;5071424;28;20119;-59
2022/12/12 17:43:02;;;;;;;9.10;8.17;;;;;;;;;;5076682;28;19908;-59
2022/12/12 17:48:42;;;;;;;9.50;8.30;;;;;;;;;;5095156;28;20031;-59
2022/12/12 17:51:36;;;;;;;13.70;7.50;;;;;;;;;;5072895;28;20082;-59
2022/12/12 17:54:36;;;;;;;9.63;7.50;;;;;;;;;;5076171;28;20081;-59
2022/12/12 17:57:08;;;;;;;11.60;8.80;;;;;;;;;;5072282;28;20470;-59
2022/12/12 18:02:48;;;;;;;10.20;7.63;;;;;;;;;;5088134;28;20020;-60
2022/12/12 18:08:23;;;;;;;8.10;4.80;;;;;;;;;;5085506;28;19964;-59
2022/12/12 18:11:03;;;;;;;8.07;6.03;;;;;;;;;;5100306;28;20461;-59
2022/12/12 18:13:42;;;;;;;;;;;;;;;;;;5118850;28;20031;-60
2022/12/12 18:16:42;;;;;;;7.53;4.43;;;;;;;;;;5099670;28;20385;-59
2022/12/12 18:19:16;;;;;;;7.07;6.40;;;;;;;;;;5096286;28;20129;-59
2022/12/12 18:22:26;;;;;;;8.53;6.77;;;;;;;;;;5112260;28;20111;-59
2022/12/12 18:25:14;;;;;;;;;;;;;;;;;;;;;
2022/12/12 18:31:08;;;;;;;11.30;7.00;;;;;;;;;;5110106;28;20457;-59
2022/12/12 18:34:07;;;;;;;11.57;9.40;;;;;;;;;;5100636;28;20110;-59
2022/12/12 18:39:50;;;;;;;13.43;8.40;;;;;;;;;;5114971;28;20039;-59
2022/12/12 18:42:57;;;;;;;8.70;7.17;;;;;;;;;;5098251;28;20032;-59
2022/12/12 18:45:52;;;;;;;13.03;8.23;;;;;;;;;;5068263;28;20027;-60
2022/12/12 18:48:43;;;;;;;10.93;8.57;;;;;;;;;;5035188;28;20507;-59
2022/12/12 18:51:44;;;;;;;10.68;8.15;;;;;;;;;;5016964;28;20033;-59
2022/12/12 18:54:17;;;;;;;11.83;9.93;;;;;;;;;;5033101;28;20033;-59
2022/12/12 18:57:08;;;;;;;14.77;8.87;;;;;;;;;;4998371;28;20034;-59
2022/12/12 19:00:19;;;;;;;14.33;8.20;;;;;;;;;;5014847;28;20065;-59
2022/12/12 19:02:48;;;;;;;13.20;11.93;;;;;;;;;;5015709;28;20096;-59
2022/12/12 19:05:38;;;;;;;11.93;10.57;;;;;;;;;;5028242;28;20029;-60
2022/12/12 19:08:24;;;;;;;;;;;;;;;;;;;;;
2022/12/12 19:10:50;;;;;;;13.13;8.80;;;;;;;;;;5086652;28;20116;-60
2022/12/12 19:13:35;;;;;;;12.27;9.87;;;;;;;;;;5087593;28;20090;-59
2022/12/12 19:16:30;;;;;;;10.40;8.00;;;;;;;;;;5085532;28;20096;-60
2022/12/12 19:19:19;;;;;;;13.87;8.90;;;;;;;;;;5088630;28;20045;-59
2022/12/12 19:22:01;;;;;;;;;;;;;;;;;;;;;
2022/12/12 19:24:52;;;;;;;14.30;11.83;;;;;;;;;;5048600;28;20064;-59
2022/12/12 19:30:37;;;;;;;10.70;9.70;;;;;;;;;;5038586;28;20031;-60
2022/12/12 19:33:24;;;;;;;17.57;12.07;;;;;;;;;;5087472;28;20390;-60
2022/12/12 19:36:01;;;;;;;15.53;12.90;;;;;;;;;;5087973;28;20116;-60
2022/12/12 19:38:28;;;;;;;11.80;10.10;;;;;;;;;;5087050;28;20028;-59
2022/12/12 19:41:18;;;;;;;12.00;10.73;;;;;;;;;;5086425;28;20025;-59
2022/12/12 19:47:06;;;;;;;13.67;9.87;;;;;;;;;;5084742;28;20040;-59
2022/12/12 19:49:56;;;;;;;28.27;14.27;;;;;;;;;;5087369;28;20486;-59
2022/12/12 19:52:40;;;;;;;13.20;8.97;;;;;;;;;;5080997;28;20031;-59
2022/12/12 19:55:20;;;;;;;15.67;9.83;;;;;;;;;;5130159;28;20028;-59
2022/12/12 19:58:11;;;;;;;13.23;9.67;;;;;;;;;;5112142;28;20087;-59
2022/12/12 20:00:44;;;;;;;11.97;9.13;;;;;;;;;;5105535;28;20583;-59
2022/12/12 20:03:35;;;;;;;11.50;9.80;;;;;;;;;;5111315;28;20532;-59
2022/12/12 20:06:18;;;;;;;10.83;9.10;;;;;;;;;;5110874;28;20058;-59
2022/12/12 20:09:09;;;;;;;13.33;9.40;;;;;;;;;;5108216;28;20065;-59
2022/12/12 20:14:26;;;;;;;;;;;;;;;;;;5116796;28;20475;-59
2022/12/12 20:20:57;;;;;;;8.95;6.35;;;;;;;;;;5053404;28;20036;-59
2022/12/12 20:23:41;;;;;;;8.95;7.15;;;;;;;;;;5036061;28;20056;-60
2022/12/12 20:33:05;;;;;;;10.83;7.83;;;;;;;;;;5032844;28;20060;-59
2022/12/12 20:43:03;;;;;;;8.17;7.37;;;;;;;;;;5033344;28;20037;-59
2022/12/12 20:51:29;;;;;;;8.97;7.03;;;;;;;;;;5032549;28;20495;-58
2022/12/12 20:54:42;;;;;;;9.93;8.13;;;;;;;;;;5037163;28;20126;-59
2022/12/12 20:56:54;;;;;;;10.87;7.70;;;;;;;;;;5104362;28;20031;-59
2022/12/12 20:59:35;;;;;;;13.30;10.33;;;;;;;;;;5115491;28;20365;-59
2022/12/12 21:02:21;;;;;;;8.82;8.02;;;;;;;;;;5097827;28;20100;-59
2022/12/12 21:05:13;;;;;;;14.27;13.10;;;;;;;;;;5096863;28;20023;-60
2022/12/12 21:07:56;;;;;;;11.73;10.53;;;;;;;;;;5114961;28;20050;-58
2022/12/12 21:10:32;;;;;;;11.70;10.03;;;;;;;;;;5095355;28;20397;-59
2022/12/12 21:13:31;;;;;;;12.23;10.67;;;;;;;;;;5116361;28;20027;-59
2022/12/12 21:16:33;;;;;;;9.17;8.20;;;;;;;;;;5077930;28;20092;-59
2022/12/12 21:19:07;;;;;;;10.80;9.80;;;;;;;;;;5094168;28;20063;-59
2022/12/12 21:27:49;;;;;;;7.07;6.37;;;;;;;;;;5029543;28;20111;-59
2022/12/12 21:30:41;;;;;;;8.00;7.30;;;;;;;;;;5052898;28;20352;-59
2022/12/12 21:36:30;;;;;;;8.73;7.88;;;;;;;;;;5103501;28;20027;-58
2022/12/12 21:42:26;;;;;;;9.87;6.80;;;;;;;;;;5051593;28;20029;-60
2022/12/12 21:51:27;;;;;;;6.47;5.43;;;;;;;;;;5114432;28;20039;-59
2022/12/12 21:57:23;;;;;;;;;;;;;;;;;;;;;
2022/12/12 21:59:58;;;;;;;9.00;6.77;;;;;;;;;;5115062;28;20373;-59
2022/12/12 22:03:07;;;;;;;6.63;5.87;;;;;;;;;;5126466;28;20094;-59
2022/12/12 22:05:59;;;;;;;10.13;6.37;;;;;;;;;;5128760;28;20188;-58
2022/12/12 22:08:51;;;;;;;10.13;6.50;;;;;;;;;;5128561;28;20035;-59
2022/12/12 22:11:27;;;;;;;7.57;6.80;;;;;;;;;;5108606;28;20048;-59
2022/12/12 22:14:09;;;;;;;7.60;7.00;;;;;;;;;;5086768;28;20032;-59
2022/12/12 22:16:55;;;;;;;12.40;8.83;;;;;;;;;;5101635;28;20021;-59
2022/12/12 22:19:34;;;;;;;6.50;5.70;;;;;;;;;;5108702;28;20028;-59
2022/12/12 22:22:09;;;;;;;15.80;10.03;;;;;;;;;;5108844;28;20095;-59
2022/12/12 22:24:51;;;;;;;15.47;8.10;;;;;;;;;;5108336;28;20035;-60
2022/12/12 22:27:41;;;;;;;14.53;7.93;;;;;;;;;;5108662;28;20084;-59
2022/12/12 22:33:11;;;;;;;15.03;11.30;;;;;;;;;;5066473;28;20032;-59
2022/12/12 22:36:14;;;;;;;8.13;7.40;;;;;;;;;;5066058;28;20055;-59
2022/12/12 22:39:07;;;;;;;;;;;;;;;;;;;;;
2022/12/12 22:47:50;;;;;;;5.90;4.83;;;;;;;;;;5070125;28;20040;-59
2022/12/12 22:50:56;;;;;;;;;;;;;;;;;;;;;
2022/12/12 22:53:46;;;;;;;11.37;7.07;;;;;;;;;;4990930;28;20070;-59
2022/12/12 22:56:22;;;;;;;8.57;7.63;;;;;;;;;;5028141;28;20040;-59
2022/12/12 22:59:23;;;;;;;6.53;5.23;;;;;;;;;;5029420;28;20025;-59
2022/12/12 23:05:05;;;;;;;7.37;6.67;;;;;;;;;;4990533;28;20037;-58
2022/12/12 23:10:53;;;;;;;11.80;9.63;;;;;;;;;;5000110;28;20058;-59
2022/12/12 23:16:33;;;;;;;10.80;8.80;;;;;;;;;;5070515;28;20127;-58
2022/12/12 23:19:47;;;;;;;5.50;4.97;;;;;;;;;;5089552;28;20028;-59
2022/12/12 23:22:17;;;;;;;10.80;6.73;;;;;;;;;;5010009;28;20042;-58
2022/12/12 23:25:01;;;;;;;9.20;8.30;;;;;;;;;;4992647;28;20030;-59
2022/12/12 23:33:49;;;;;;;12.80;8.97;;;;;;;;;;5023244;28;20510;-59
2022/12/12 23:36:45;;;;;;;;;;;;;;;;;;;;;
2022/12/12 23:39:38;;;;;;;9.20;7.30;;;;;;;;;;5125772;28;20070;-59
2022/12/12 23:42:26;;;;;;;8.77;7.63;;;;;;;;;;5131556;28;20024;-60
2022/12/12 23:45:31;;;;;;;16.83;9.67;;;;;;;;;;5131378;28;20032;-59
2022/12/12 23:48:11;;;;;;;12.30;7.93;;;;;;;;;;5118312;28;20096;-60
2022/12/12 23:50:57;;;;;;;11.97;10.70;;;;;;;;;;5131552;28;20035;-59
2022/12/12 23:53:42;;;;;;;11.03;7.63;;;;;;;;;;5130952;28;20032;-59
2022/12/12 23:56:43;;;;;;;13.00;9.77;;;;;;;;;;5047645;28;20049;-59
2022/12/12 23:59:15;;;;;;;7.23;6.57;;;;;;;;;;5015693;28;20029;-60
